Time;durP1;ratioP1;P1;durP2;ratioP2;P2;SDS_P1;SDS_P2;PMS_P1;PMS_P2;Temp;Humidity;BMP_temperature;BMP_pressure;BME280_temperature;BME280_humidity;BME280_pressure;Samples;Min_cycle;Max_cycle;Signal;HPM_P1;HPM_P2
2022/06/26 00:00:21;;;;;;;33.47;16.50;;;;;;;;;;6248375;22;20052;-81
2022/06/26 00:02:49;;;;;;;47.40;17.27;;;;;;;;;;6248522;22;20100;-80
2022/06/26 00:05:17;;;;;;;41.55;16.15;;;;;;;;;;6248180;22;20100;-81
2022/06/26 00:07:45;;;;;;;45.88;18.25;;;;;;;;;;6248172;22;20103;-80
2022/06/26 00:10:13;;;;;;;48.03;19.38;;;;;;;;;;6248073;22;20839;-80
2022/06/26 00:12:40;;;;;;;35.33;18.23;;;;;;;;;;6221204;22;20044;-82
2022/06/26 00:15:07;;;;;;;41.70;18.67;;;;;;;;;;6247948;22;20079;-81
2022/06/26 00:17:35;;;;;;;63.42;21.02;;;;;;;;;;6248026;22;20450;-81
2022/06/26 00:20:03;;;;;;;41.10;19.58;;;;;;;;;;6248439;22;20033;-84
2022/06/26 00:22:30;;;;;;;61.60;20.10;;;;;;;;;;6249407;22;20772;-81
2022/06/26 00:24:58;;;;;;;38.10;19.20;;;;;;;;;;6249204;22;20047;-80
2022/06/26 00:27:25;;;;;;;53.75;20.17;;;;;;;;;;6249465;22;20024;-81
2022/06/26 00:29:52;;;;;;;34.25;17.40;;;;;;;;;;6249265;22;20037;-82
2022/06/26 00:32:19;;;;;;;71.93;21.15;;;;;;;;;;6249488;22;20801;-81
2022/06/26 00:34:47;;;;;;;53.28;18.55;;;;;;;;;;6249467;22;20013;-80
2022/06/26 00:37:14;;;;;;;59.10;19.83;;;;;;;;;;6249677;22;20027;-80
2022/06/26 00:39:41;;;;;;;69.15;20.70;;;;;;;;;;6249544;22;20017;-80
2022/06/26 00:42:11;;;;;;;59.97;20.55;;;;;;;;;;6249499;22;20025;-80
2022/06/26 00:44:38;;;;;;;43.85;19.42;;;;;;;;;;6249961;22;20103;-81
2022/06/26 00:47:05;;;;;;;55.92;20.33;;;;;;;;;;6224760;22;20115;-80
2022/06/26 00:49:32;;;;;;;102.63;22.60;;;;;;;;;;6249853;22;20024;-80
2022/06/26 00:52:01;;;;;;;50.50;19.95;;;;;;;;;;6249574;22;20027;-81
2022/06/26 00:54:31;;;;;;;44.85;18.58;;;;;;;;;;6248713;22;20021;-80
2022/06/26 00:56:58;;;;;;;72.00;21.27;;;;;;;;;;6249642;22;20020;-81
2022/06/26 00:59:27;;;;;;;45.25;19.20;;;;;;;;;;6248852;22;20789;-80
2022/06/26 01:01:54;;;;;;;47.53;19.60;;;;;;;;;;6222445;22;20021;-81
2022/06/26 01:04:21;;;;;;;49.25;20.13;;;;;;;;;;6249147;22;20063;-80
2022/06/26 01:06:49;;;;;;;70.53;21.02;;;;;;;;;;6249321;22;20874;-81
2022/06/26 01:09:16;;;;;;;60.80;19.23;;;;;;;;;;6249457;22;20045;-81
2022/06/26 01:11:44;;;;;;;52.33;19.27;;;;;;;;;;6222247;22;20024;-80
2022/06/26 01:14:11;;;;;;;77.88;21.08;;;;;;;;;;6249112;22;20469;-80
2022/06/26 01:16:40;;;;;;;75.63;19.48;;;;;;;;;;6249008;22;20031;-81
2022/06/26 01:19:08;;;;;;;47.00;17.90;;;;;;;;;;6248918;22;20837;-80
2022/06/26 01:21:35;;;;;;;37.92;17.75;;;;;;;;;;6248949;22;20028;-80
2022/06/26 01:24:03;;;;;;;56.88;18.52;;;;;;;;;;6249196;22;20020;-80
2022/06/26 01:26:30;;;;;;;59.50;19.55;;;;;;;;;;6249057;22;20096;-80
2022/06/26 01:28:58;;;;;;;48.60;18.92;;;;;;;;;;6248872;22;20025;-80
2022/06/26 01:31:25;;;;;;;48.03;17.88;;;;;;;;;;6248527;22;20051;-80
2022/06/26 01:33:52;;;;;;;76.35;20.25;;;;;;;;;;6221521;22;20027;-80
2022/06/26 01:36:19;;;;;;;69.63;21.67;;;;;;;;;;6249085;22;20024;-82
2022/06/26 01:38:47;;;;;;;48.60;19.52;;;;;;;;;;6249069;22;20091;-81
2022/06/26 01:41:14;;;;;;;59.45;20.17;;;;;;;;;;6248948;22;20028;-80
2022/06/26 01:43:41;;;;;;;71.28;21.50;;;;;;;;;;6249182;22;20024;-80
2022/06/26 01:46:09;;;;;;;54.22;19.67;;;;;;;;;;6249196;22;20903;-80
2022/06/26 01:48:38;;;;;;;59.70;20.33;;;;;;;;;;6248631;22;20032;-81
2022/06/26 01:51:06;;;;;;;54.60;20.70;;;;;;;;;;6248866;22;20029;-81
2022/06/26 01:53:34;;;;;;;41.95;18.95;;;;;;;;;;6248929;22;20079;-81
2022/06/26 01:56:02;;;;;;;55.88;21.02;;;;;;;;;;6248705;22;20027;-80
2022/06/26 01:58:32;;;;;;;71.00;23.05;;;;;;;;;;6249161;22;20100;-80
2022/06/26 02:01:00;;;;;;;67.55;23.70;;;;;;;;;;6249148;22;20063;-81
2022/06/26 02:03:28;;;;;;;67.68;23.75;;;;;;;;;;6248825;22;20040;-81
2022/06/26 02:06:01;;;;;;;53.47;22.77;;;;;;;;;;6249014;22;20031;-80
2022/06/26 02:08:28;;;;;;;56.63;22.20;;;;;;;;;;6248934;22;20024;-81
2022/06/26 02:13:44;;;;;;;56.38;23.10;;;;;;;;;;6249117;22;20029;-80
2022/06/26 02:16:18;;;;;;;71.38;24.83;;;;;;;;;;6248949;22;20020;-81
2022/06/26 02:18:48;;;;;;;48.22;22.27;;;;;;;;;;6249285;22;20553;-81
2022/06/26 02:21:16;;;;;;;39.75;20.58;;;;;;;;;;6248968;22;20123;-80
2022/06/26 02:23:44;;;;;;;51.05;22.90;;;;;;;;;;6248692;22;20020;-82
2022/06/26 02:26:11;;;;;;;56.55;22.88;;;;;;;;;;6248934;22;20466;-81
2022/06/26 02:28:39;;;;;;;40.90;20.90;;;;;;;;;;6248772;22;20103;-80
2022/06/26 02:31:07;;;;;;;56.45;24.65;;;;;;;;;;6248868;22;20063;-82
2022/06/26 02:33:35;;;;;;;53.17;24.55;;;;;;;;;;6248670;22;20025;-80
2022/06/26 02:36:04;;;;;;;45.63;23.23;;;;;;;;;;6248898;22;20421;-81
2022/06/26 02:38:31;;;;;;;42.10;22.48;;;;;;;;;;6248823;22;20025;-81
2022/06/26 02:40:58;;;;;;;65.57;24.63;;;;;;;;;;6248794;22;20052;-81
2022/06/26 02:43:25;;;;;;;49.63;24.10;;;;;;;;;;6248216;22;20133;-80
2022/06/26 02:45:53;;;;;;;75.07;25.88;;;;;;;;;;6248963;22;20048;-80
2022/06/26 02:48:21;;;;;;;69.05;25.60;;;;;;;;;;6248470;22;20025;-80
2022/06/26 02:50:48;;;;;;;59.95;24.95;;;;;;;;;;6248551;22;20024;-81
2022/06/26 02:53:15;;;;;;;80.90;26.67;;;;;;;;;;6247726;22;20020;-81
2022/06/26 02:55:43;;;;;;;84.65;26.30;;;;;;;;;;6248575;22;20074;-80
2022/06/26 02:58:10;;;;;;;108.47;27.55;;;;;;;;;;6248799;22;20841;-81
2022/06/26 03:00:38;;;;;;;73.25;26.52;;;;;;;;;;6248179;22;20056;-81
2022/06/26 03:03:05;;;;;;;92.35;26.67;;;;;;;;;;6248712;22;20794;-81
2022/06/26 03:05:35;;;;;;;93.70;28.05;;;;;;;;;;6222011;22;20103;-80
2022/06/26 03:08:02;;;;;;;99.43;27.40;;;;;;;;;;6249066;22;20103;-80
2022/06/26 03:10:29;;;;;;;77.43;27.42;;;;;;;;;;6248620;22;20021;-80
2022/06/26 03:12:57;;;;;;;55.88;24.50;;;;;;;;;;6248720;22;20044;-80
2022/06/26 03:15:24;;;;;;;73.28;26.55;;;;;;;;;;6248963;22;20021;-80
2022/06/26 03:17:51;;;;;;;60.55;24.38;;;;;;;;;;6248428;22;20113;-81
2022/06/26 03:20:19;;;;;;;75.53;26.38;;;;;;;;;;6248456;22;20104;-80
2022/06/26 03:22:47;;;;;;;67.88;24.88;;;;;;;;;;6248489;22;20024;-80
2022/06/26 03:25:14;;;;;;;55.95;22.88;;;;;;;;;;6248717;22;20056;-80
2022/06/26 03:27:41;;;;;;;129.73;26.08;;;;;;;;;;6248228;22;20110;-80
2022/06/26 03:30:10;;;;;;;63.40;24.35;;;;;;;;;;6248378;22;20020;-80
2022/06/26 03:32:37;;;;;;;80.72;23.70;;;;;;;;;;6248624;22;20028;-79
2022/06/26 03:35:05;;;;;;;98.75;24.95;;;;;;;;;;6248619;22;20032;-80
2022/06/26 03:37:32;;;;;;;82.97;26.20;;;;;;;;;;6248525;22;20025;-80
2022/06/26 03:40:00;;;;;;;76.20;25.02;;;;;;;;;;6248459;22;20453;-81
2022/06/26 03:42:27;;;;;;;61.70;23.63;;;;;;;;;;6248496;22;20021;-82
2022/06/26 03:44:54;;;;;;;70.03;24.48;;;;;;;;;;6248459;22;20021;-81
2022/06/26 03:47:22;;;;;;;59.53;23.30;;;;;;;;;;6248432;22;20056;-80
2022/06/26 03:49:54;;;;;;;59.47;22.77;;;;;;;;;;6248218;22;20458;-80
2022/06/26 03:52:24;;;;;;;57.38;22.40;;;;;;;;;;6248617;22;20823;-80
2022/06/26 03:54:52;;;;;;;76.28;23.90;;;;;;;;;;6248961;22;20440;-80
2022/06/26 03:57:19;;;;;;;65.35;22.17;;;;;;;;;;6249206;22;20796;-80
2022/06/26 03:59:50;;;;;;;76.50;24.88;;;;;;;;;;6250006;22;20033;-81
2022/06/26 04:02:17;;;;;;;71.35;23.63;;;;;;;;;;6249266;22;20120;-80
2022/06/26 04:04:45;;;;;;;64.50;23.95;;;;;;;;;;6249827;22;20016;-80
2022/06/26 04:07:12;;;;;;;64.00;22.80;;;;;;;;;;6249501;22;20021;-81
2022/06/26 04:09:40;;;;;;;57.47;22.88;;;;;;;;;;6249362;22;20020;-81
2022/06/26 04:12:07;;;;;;;62.55;23.17;;;;;;;;;;6249651;22;20560;-80
2022/06/26 04:14:34;;;;;;;55.30;22.00;;;;;;;;;;6249457;22;20533;-80
2022/06/26 04:17:02;;;;;;;70.15;22.33;;;;;;;;;;6249385;22;20083;-81
2022/06/26 04:19:32;;;;;;;90.65;25.25;;;;;;;;;;6249430;22;20351;-80
2022/06/26 04:21:59;;;;;;;78.75;22.90;;;;;;;;;;6249035;22;20034;-80
2022/06/26 04:24:26;;;;;;;113.43;23.73;;;;;;;;;;6249366;22;20103;-80
2022/06/26 04:26:53;;;;;;;72.55;22.55;;;;;;;;;;6249274;22;20108;-81
2022/06/26 04:29:20;;;;;;;66.35;22.60;;;;;;;;;;6249147;22;20095;-80
2022/06/26 04:31:47;;;;;;;72.95;22.83;;;;;;;;;;6249166;22;20021;-81
2022/06/26 04:34:15;;;;;;;51.13;20.83;;;;;;;;;;6249540;22;20095;-80
2022/06/26 04:36:42;;;;;;;73.25;21.52;;;;;;;;;;6249115;22;20025;-81
2022/06/26 04:39:09;;;;;;;76.30;22.73;;;;;;;;;;6249698;22;20020;-81
2022/06/26 04:41:36;;;;;;;68.38;21.10;;;;;;;;;;6249506;22;20021;-80
2022/06/26 04:44:11;;;;;;;55.65;20.45;;;;;;;;;;6249406;22;20078;-82
2022/06/26 04:46:39;;;;;;;90.70;21.63;;;;;;;;;;6249563;22;20466;-80
2022/06/26 04:49:06;;;;;;;67.05;20.48;;;;;;;;;;6249171;22;20024;-80
2022/06/26 04:51:35;;;;;;;95.05;23.00;;;;;;;;;;6249206;22;20027;-81
2022/06/26 04:54:03;;;;;;;61.28;21.92;;;;;;;;;;6222175;22;20983;-80
2022/06/26 04:56:33;;;;;;;45.85;19.75;;;;;;;;;;6218662;23;20068;-80
2022/06/26 04:59:01;;;;;;;58.42;19.63;;;;;;;;;;6192463;23;20035;-80
2022/06/26 05:01:28;;;;;;;47.20;19.10;;;;;;;;;;6218905;23;20025;-80
2022/06/26 05:03:56;;;;;;;67.53;20.50;;;;;;;;;;6218580;23;20796;-81
2022/06/26 05:06:23;;;;;;;51.58;19.20;;;;;;;;;;6218774;23;20323;-81
2022/06/26 05:08:51;;;;;;;56.17;20.35;;;;;;;;;;6218559;23;20099;-81
2022/06/26 05:11:19;;;;;;;64.55;20.58;;;;;;;;;;6222017;23;20040;-81
2022/06/26 05:13:46;;;;;;;65.40;21.45;;;;;;;;;;6225588;23;20048;-81
2022/06/26 05:16:13;;;;;;;50.40;20.25;;;;;;;;;;6225333;23;20036;-81
2022/06/26 05:18:40;;;;;;;38.17;19.42;;;;;;;;;;6224040;23;20013;-80
2022/06/26 05:21:07;;;;;;;55.30;21.70;;;;;;;;;;6224180;23;20024;-80
2022/06/26 05:23:36;;;;;;;66.10;22.30;;;;;;;;;;6218842;23;20027;-80
2022/06/26 05:26:03;;;;;;;54.92;21.50;;;;;;;;;;6219141;23;20109;-80
2022/06/26 05:28:30;;;;;;;38.80;18.95;;;;;;;;;;6218836;23;20104;-80
2022/06/26 05:30:57;;;;;;;45.45;20.80;;;;;;;;;;6217975;23;20025;-80
2022/06/26 05:33:25;;;;;;;41.63;18.05;;;;;;;;;;6218587;23;20788;-80
2022/06/26 05:35:52;;;;;;;39.88;18.67;;;;;;;;;;6218481;23;20103;-81
2022/06/26 05:38:19;;;;;;;52.10;20.27;;;;;;;;;;6218679;23;20462;-80
2022/06/26 05:40:46;;;;;;;34.42;17.92;;;;;;;;;;6218428;23;20027;-81
2022/06/26 05:43:13;;;;;;;33.83;16.23;;;;;;;;;;6191691;23;20355;-80
2022/06/26 05:45:40;;;;;;;33.80;15.15;;;;;;;;;;6218881;23;20053;-80
2022/06/26 05:48:07;;;;;;;31.67;14.63;;;;;;;;;;6218762;23;20025;-79
2022/06/26 05:50:34;;;;;;;29.92;15.65;;;;;;;;;;6220547;23;20017;-80
2022/06/26 05:53:02;;;;;;;32.88;15.10;;;;;;;;;;6224697;23;20017;-80
2022/06/26 05:55:29;;;;;;;24.27;13.30;;;;;;;;;;6238904;22;20732;-80
2022/06/26 05:57:56;;;;;;;47.60;14.27;;;;;;;;;;6250960;22;20753;-80
2022/06/26 06:00:23;;;;;;;24.42;11.43;;;;;;;;;;6253693;22;20703;-81
2022/06/26 06:02:50;;;;;;;23.38;12.48;;;;;;;;;;6250998;22;20132;-80
2022/06/26 06:05:18;;;;;;;24.13;11.48;;;;;;;;;;6222305;22;20025;-81
2022/06/26 06:07:45;;;;;;;31.25;13.93;;;;;;;;;;6248639;22;20035;-81
2022/06/26 06:10:12;;;;;;;26.60;12.57;;;;;;;;;;6248764;22;20017;-80
2022/06/26 06:12:39;;;;;;;18.90;10.52;;;;;;;;;;6249065;22;20071;-80
2022/06/26 06:15:07;;;;;;;20.60;10.70;;;;;;;;;;6249032;22;20849;-81
2022/06/26 06:17:37;;;;;;;20.35;10.23;;;;;;;;;;6248739;22;20056;-80
2022/06/26 06:20:07;;;;;;;17.52;10.00;;;;;;;;;;6249005;22;20061;-80
2022/06/26 06:22:34;;;;;;;18.15;10.18;;;;;;;;;;6249009;22;20032;-81
2022/06/26 06:25:01;;;;;;;16.83;9.32;;;;;;;;;;6222032;22;20136;-80
2022/06/26 06:27:43;;;;;;;17.83;9.63;;;;;;;;;;6248864;22;20020;-80
2022/06/26 06:30:11;;;;;;;18.27;10.52;;;;;;;;;;6248885;22;20086;-80
2022/06/26 06:32:40;;;;;;;14.65;8.85;;;;;;;;;;6248024;22;20016;-81
2022/06/26 06:35:08;;;;;;;15.18;10.10;;;;;;;;;;6248868;22;20104;-80
2022/06/26 06:37:43;;;;;;;16.88;10.45;;;;;;;;;;6248741;22;20047;-82
2022/06/26 06:40:11;;;;;;;15.20;9.98;;;;;;;;;;6248656;22;20427;-80
2022/06/26 06:42:45;;;;;;;16.60;10.25;;;;;;;;;;6223552;22;20391;-80
2022/06/26 06:45:13;;;;;;;22.60;11.93;;;;;;;;;;6248619;22;20032;-80
2022/06/26 06:47:40;;;;;;;18.77;10.15;;;;;;;;;;6248654;22;20021;-81
2022/06/26 06:50:10;;;;;;;15.77;9.63;;;;;;;;;;6248691;22;20601;-80
2022/06/26 06:52:37;;;;;;;13.95;9.77;;;;;;;;;;6248532;22;20044;-80
2022/06/26 06:55:05;;;;;;;16.27;10.70;;;;;;;;;;6248176;22;20028;-80
2022/06/26 06:57:32;;;;;;;11.05;8.10;;;;;;;;;;6247932;22;20453;-81
2022/06/26 07:00:01;;;;;;;11.73;8.48;;;;;;;;;;6248332;22;20100;-81
2022/06/26 07:02:31;;;;;;;11.02;8.27;;;;;;;;;;6221602;22;20055;-80
2022/06/26 07:05:00;;;;;;;15.68;8.88;;;;;;;;;;6248535;22;20135;-80
2022/06/26 07:07:27;;;;;;;16.48;9.20;;;;;;;;;;6248302;22;20067;-80
2022/06/26 07:09:57;;;;;;;12.85;8.57;;;;;;;;;;6248484;22;20051;-80
2022/06/26 07:12:25;;;;;;;14.90;8.95;;;;;;;;;;6248234;22;20020;-80
2022/06/26 07:14:52;;;;;;;13.85;8.68;;;;;;;;;;6248305;22;20555;-80
2022/06/26 07:17:21;;;;;;;11.95;8.02;;;;;;;;;;6221753;22;20025;-80
2022/06/26 07:19:48;;;;;;;11.85;8.15;;;;;;;;;;6221560;22;20478;-80
2022/06/26 07:22:22;;;;;;;16.17;9.82;;;;;;;;;;6248370;22;20028;-80
2022/06/26 07:24:49;;;;;;;18.23;10.55;;;;;;;;;;6248737;22;20094;-80
2022/06/26 07:27:19;;;;;;;15.80;9.48;;;;;;;;;;6248602;22;20083;-81
2022/06/26 07:29:46;;;;;;;15.27;9.25;;;;;;;;;;6249115;22;20060;-81
2022/06/26 07:32:13;;;;;;;14.20;8.98;;;;;;;;;;6230084;22;20068;-80
2022/06/26 07:34:40;;;;;;;14.15;9.68;;;;;;;;;;6251904;22;20879;-80
2022/06/26 07:37:07;;;;;;;14.32;9.18;;;;;;;;;;6249542;22;20728;-80
2022/06/26 07:39:35;;;;;;;15.20;10.25;;;;;;;;;;6222343;22;20031;-80
2022/06/26 07:42:02;;;;;;;14.00;10.25;;;;;;;;;;6221613;22;20104;-80
2022/06/26 07:44:29;;;;;;;16.42;9.57;;;;;;;;;;6247909;22;20440;-81
2022/06/26 07:46:57;;;;;;;12.32;9.07;;;;;;;;;;6247259;22;20083;-81
2022/06/26 07:49:24;;;;;;;14.23;10.10;;;;;;;;;;6221198;22;20029;-81
2022/06/26 07:51:51;;;;;;;13.50;7.43;;;;;;;;;;6248249;22;20497;-81
2022/06/26 07:54:24;;;;;;;13.80;7.50;;;;;;;;;;6221305;22;20051;-81
2022/06/26 07:56:51;;;;;;;11.70;6.72;;;;;;;;;;6247219;22;20056;-81
2022/06/26 07:59:19;;;;;;;10.70;7.70;;;;;;;;;;6219982;22;20023;-81
2022/06/26 08:01:47;;;;;;;11.52;6.95;;;;;;;;;;6245875;22;20425;-81
2022/06/26 08:04:14;;;;;;;13.80;7.10;;;;;;;;;;6247635;22;20024;-81
2022/06/26 08:06:42;;;;;;;9.55;6.40;;;;;;;;;;6221335;22;20020;-81
2022/06/26 08:09:09;;;;;;;8.70;6.78;;;;;;;;;;6247805;22;20048;-82
2022/06/26 08:11:36;;;;;;;8.65;6.20;;;;;;;;;;6247628;22;20477;-81
2022/06/26 08:14:03;;;;;;;9.98;7.60;;;;;;;;;;6247708;22;20028;-82
2022/06/26 08:16:33;;;;;;;11.20;6.40;;;;;;;;;;6248084;22;20020;-81
2022/06/26 08:19:00;;;;;;;11.18;6.53;;;;;;;;;;6247921;22;20732;-81
2022/06/26 08:24:14;;;;;;;10.65;7.00;;;;;;;;;;6247521;22;20382;-81
2022/06/26 08:26:41;;;;;;;9.02;5.65;;;;;;;;;;6220431;22;20458;-80
2022/06/26 08:29:11;;;;;;;11.85;6.07;;;;;;;;;;6247072;22;20036;-81
2022/06/26 08:31:38;;;;;;;11.27;6.18;;;;;;;;;;6247747;22;20844;-81
2022/06/26 08:34:05;;;;;;;12.57;5.65;;;;;;;;;;6245653;22;20032;-81
2022/06/26 08:36:35;;;;;;;11.60;5.75;;;;;;;;;;6245003;22;20020;-82
2022/06/26 08:39:03;;;;;;;8.77;5.28;;;;;;;;;;6245956;22;20034;-82
2022/06/26 08:41:30;;;;;;;10.65;5.38;;;;;;;;;;6248011;22;20021;-80
2022/06/26 08:44:01;;;;;;;9.20;5.32;;;;;;;;;;6249036;22;20027;-81
2022/06/26 08:46:28;;;;;;;7.45;4.90;;;;;;;;;;6249589;22;20128;-80
2022/06/26 08:48:58;;;;;;;7.05;4.35;;;;;;;;;;6249302;22;20119;-81
2022/06/26 08:51:25;;;;;;;10.90;5.65;;;;;;;;;;6248872;22;20016;-82
2022/06/26 08:53:53;;;;;;;9.57;5.53;;;;;;;;;;6250288;22;20029;-81
2022/06/26 08:56:21;;;;;;;11.95;5.05;;;;;;;;;;6250115;22;20457;-81
2022/06/26 08:58:48;;;;;;;6.82;4.00;;;;;;;;;;6250198;22;20512;-82
2022/06/26 09:01:15;;;;;;;5.80;4.03;;;;;;;;;;6249684;22;20021;-81
2022/06/26 09:03:45;;;;;;;7.60;3.80;;;;;;;;;;6249887;22;20474;-82
2022/06/26 09:06:12;;;;;;;6.97;3.33;;;;;;;;;;6223623;22;20043;-82
2022/06/26 09:08:48;;;;;;;4.88;3.40;;;;;;;;;;6223959;22;20021;-82
2022/06/26 09:11:25;;;;;;;8.88;3.83;;;;;;;;;;6223529;22;20021;-82
2022/06/26 09:13:59;;;;;;;7.13;4.10;;;;;;;;;;6223397;22;20029;-82
2022/06/26 09:16:47;;;;;;;6.63;4.07;;;;;;;;;;6223392;22;20032;-82
2022/06/26 09:19:19;;;;;;;7.50;3.97;;;;;;;;;;6223294;22;20013;-81
2022/06/26 09:21:54;;;;;;;7.15;3.45;;;;;;;;;;6250139;22;20528;-81
2022/06/26 09:24:24;;;;;;;7.13;4.47;;;;;;;;;;6250201;22;20032;-81
2022/06/26 09:27:03;;;;;;;7.75;4.47;;;;;;;;;;6249650;22;20021;-81
2022/06/26 09:29:30;;;;;;;9.63;4.85;;;;;;;;;;6222091;22;20013;-81
2022/06/26 09:32:12;;;;;;;5.28;4.65;;;;;;;;;;6221791;22;20875;-81
2022/06/26 09:34:46;;;;;;;6.75;4.53;;;;;;;;;;6248724;22;20111;-81
2022/06/26 09:37:13;;;;;;;8.93;4.60;;;;;;;;;;6249156;22;20045;-81
2022/06/26 09:40:00;;;;;;;8.88;5.10;;;;;;;;;;6248817;22;20043;-81
2022/06/26 09:42:31;;;;;;;8.07;4.55;;;;;;;;;;6248722;22;20025;-81
2022/06/26 09:45:01;;;;;;;8.18;6.63;;;;;;;;;;6217187;22;20758;-81
2022/06/26 09:47:36;;;;;;;8.97;6.87;;;;;;;;;;6223162;22;20025;-81
2022/06/26 09:50:10;;;;;;;9.23;6.80;;;;;;;;;;6248810;22;20732;-81
2022/06/26 09:52:37;;;;;;;13.55;7.07;;;;;;;;;;6248585;22;20044;-81
2022/06/26 09:55:06;;;;;;;11.25;6.45;;;;;;;;;;6248155;22;20083;-81
2022/06/26 09:57:33;;;;;;;11.57;6.70;;;;;;;;;;6248697;22;20128;-81
2022/06/26 10:00:01;;;;;;;9.35;5.60;;;;;;;;;;6248453;22;20783;-81
2022/06/26 10:08:06;;;;;;;11.80;5.75;;;;;;;;;;6248915;22;20031;-81
2022/06/26 10:10:34;;;;;;;8.23;5.50;;;;;;;;;;6248713;22;20506;-81
2022/06/26 10:13:05;;;;;;;8.40;5.80;;;;;;;;;;6248783;22;20024;-81
2022/06/26 10:15:38;;;;;;;7.70;5.82;;;;;;;;;;6248446;22;20048;-81
2022/06/26 10:18:19;;;;;;;9.48;5.78;;;;;;;;;;6248128;22;20048;-81
2022/06/26 10:20:49;;;;;;;9.10;5.80;;;;;;;;;;6248883;22;20128;-81
2022/06/26 10:23:52;;;;;;;8.55;4.80;;;;;;;;;;6248603;22;20071;-81
2022/06/26 10:26:25;;;;;;;8.68;4.60;;;;;;;;;;6095987;23;20774;-81
2022/06/26 10:28:57;;;;;;;6.10;4.20;;;;;;;;;;6096062;23;20022;-80
2022/06/26 10:31:30;;;;;;;;;;;;;;;;;;6073292;23;20034;-81
2022/06/26 10:34:08;;;;;;;8.90;5.15;;;;;;;;;;6070534;23;42874;-81
2022/06/26 10:36:36;;;;;;;7.05;5.00;;;;;;;;;;6072238;23;20091;-80
2022/06/26 10:39:04;;;;;;;6.00;4.45;;;;;;;;;;6096453;23;20884;-81
2022/06/26 10:44:39;;;;;;;8.38;3.88;;;;;;;;;;6095889;23;20503;-81
2022/06/26 10:47:16;;;;;;;6.50;3.63;;;;;;;;;;6072326;23;20389;-80
2022/06/26 10:49:47;;;;;;;5.70;3.47;;;;;;;;;;6095452;23;20843;-82
2022/06/26 10:52:25;;;;;;;9.23;4.10;;;;;;;;;;6096015;23;20816;-80
2022/06/26 10:54:57;;;;;;;6.78;4.18;;;;;;;;;;6095862;23;20025;-80
2022/06/26 10:57:34;;;;;;;10.35;4.47;;;;;;;;;;6072813;23;20077;-81
2022/06/26 11:00:02;;;;;;;7.00;4.03;;;;;;;;;;6148258;22;20024;-81
2022/06/26 11:02:37;;;;;;;11.93;4.20;;;;;;;;;;6248250;22;20496;-81
2022/06/26 11:05:06;;;;;;;6.32;4.22;;;;;;;;;;6248039;22;20028;-81
2022/06/26 11:07:46;;;;;;;5.60;3.90;;;;;;;;;;6248513;22;20820;-81
2022/06/26 11:10:17;;;;;;;7.55;3.70;;;;;;;;;;6221323;22;20024;-81
2022/06/26 11:12:46;;;;;;;7.07;3.83;;;;;;;;;;6221057;22;20025;-81
2022/06/26 11:15:26;;;;;;;9.15;3.60;;;;;;;;;;6221422;22;20028;-80
2022/06/26 11:17:58;;;;;;;5.55;3.58;;;;;;;;;;6248731;22;20108;-81
2022/06/26 11:23:25;;;;;;;7.05;3.80;;;;;;;;;;6248250;22;20024;-82
2022/06/26 11:25:59;;;;;;;10.40;4.35;;;;;;;;;;6248066;22;20024;-81
2022/06/26 11:28:34;;;;;;;5.15;2.70;;;;;;;;;;6248317;22;20021;-80
2022/06/26 11:31:02;;;;;;;6.13;2.92;;;;;;;;;;6221455;22;20054;-81
2022/06/26 11:33:42;;;;;;;6.97;3.00;;;;;;;;;;6221689;22;20027;-81
2022/06/26 11:36:15;;;;;;;5.78;2.42;;;;;;;;;;6220925;22;20031;-81
2022/06/26 11:38:53;;;;;;;9.77;2.90;;;;;;;;;;6221652;22;20328;-81
2022/06/26 11:41:24;;;;;;;8.15;3.10;;;;;;;;;;6248153;22;20020;-81
2022/06/26 11:43:55;;;;;;;6.32;3.20;;;;;;;;;;6221428;22;20584;-81
2022/06/26 11:46:26;;;;;;;7.28;3.33;;;;;;;;;;6222471;22;20043;-81
2022/06/26 11:48:53;;;;;;;7.15;3.20;;;;;;;;;;6221569;22;20111;-80
2022/06/26 11:51:24;;;;;;;8.70;2.80;;;;;;;;;;6247878;22;20081;-81
2022/06/26 11:53:52;;;;;;;5.45;2.78;;;;;;;;;;6220844;22;20032;-80
2022/06/26 11:56:26;;;;;;;6.07;2.78;;;;;;;;;;6247819;22;20074;-81
2022/06/26 11:58:55;;;;;;;5.88;2.50;;;;;;;;;;6248382;22;20090;-81
2022/06/26 12:01:22;;;;;;;6.18;2.97;;;;;;;;;;6221361;22;20124;-81
2022/06/26 12:03:51;;;;;;;7.45;2.90;;;;;;;;;;6221759;22;20017;-81
2022/06/26 12:06:37;;;;;;;9.00;2.88;;;;;;;;;;6248702;22;20117;-81
2022/06/26 12:09:19;;;;;;;7.88;3.42;;;;;;;;;;6221827;22;20497;-81
2022/06/26 12:11:49;;;;;;;5.72;3.33;;;;;;;;;;6221410;22;20458;-81
2022/06/26 12:14:28;;;;;;;6.22;2.83;;;;;;;;;;6248205;22;20469;-81
2022/06/26 12:16:57;;;;;;;9.45;2.75;;;;;;;;;;6222430;22;20021;-81
2022/06/26 12:19:25;;;;;;;6.70;2.60;;;;;;;;;;6222556;22;20667;-82
2022/06/26 12:21:56;;;;;;;7.38;2.92;;;;;;;;;;6223197;22;20024;-81
2022/06/26 12:24:26;;;;;;;6.50;3.30;;;;;;;;;;6223276;22;20033;-82
2022/06/26 12:26:57;;;;;;;6.82;3.08;;;;;;;;;;6248941;22;20017;-82
2022/06/26 12:29:25;;;;;;;6.53;2.95;;;;;;;;;;6249618;22;20761;-82
2022/06/26 12:31:55;;;;;;;7.13;3.25;;;;;;;;;;6222412;22;20964;-82
2022/06/26 12:34:22;;;;;;;8.77;2.80;;;;;;;;;;6249518;22;20095;-82
2022/06/26 12:36:51;;;;;;;7.78;2.95;;;;;;;;;;6249332;22;20025;-82
2022/06/26 12:39:22;;;;;;;4.90;2.50;;;;;;;;;;6250109;22;20025;-82
2022/06/26 12:42:09;;;;;;;6.22;2.35;;;;;;;;;;6226903;22;20021;-82
2022/06/26 12:44:36;;;;;;;7.03;2.35;;;;;;;;;;6222421;22;20024;-81
2022/06/26 12:47:09;;;;;;;;;;;;;;;;;;6223622;22;20112;-80
2022/06/26 12:49:36;;;;;;;5.38;2.28;;;;;;;;;;6248276;22;43201;-82
2022/06/26 12:52:04;;;;;;;5.47;2.22;;;;;;;;;;6248622;22;20811;-81
2022/06/26 12:54:32;;;;;;;5.75;2.53;;;;;;;;;;6222251;22;20705;-81
2022/06/26 12:57:02;;;;;;;7.07;2.60;;;;;;;;;;6249257;22;20028;-82
2022/06/26 12:59:33;;;;;;;7.65;2.80;;;;;;;;;;6249300;22;20084;-82
2022/06/26 13:02:04;;;;;;;7.95;2.53;;;;;;;;;;6222772;22;20024;-82
2022/06/26 13:04:37;;;;;;;5.97;2.47;;;;;;;;;;6249148;22;20459;-82
2022/06/26 13:07:04;;;;;;;;;;;;;;;;;;6249715;22;20462;-79
2022/06/26 13:09:36;;;;;;;5.18;2.20;;;;;;;;;;6247959;22;41725;-81
2022/06/26 13:12:07;;;;;;;7.13;2.50;;;;;;;;;;6249112;22;20020;-82
2022/06/26 13:14:36;;;;;;;5.50;2.00;;;;;;;;;;6249167;22;20020;-82
2022/06/26 13:17:03;;;;;;;4.50;2.00;;;;;;;;;;6248714;22;20075;-82
2022/06/26 13:19:39;;;;;;;5.55;2.42;;;;;;;;;;6249153;22;20040;-82
2022/06/26 13:22:07;;;;;;;6.97;2.15;;;;;;;;;;6249220;22;20051;-83
2022/06/26 13:24:35;;;;;;;7.47;2.20;;;;;;;;;;6248672;22;20074;-82
2022/06/26 13:27:04;;;;;;;6.65;2.10;;;;;;;;;;6221863;22;20028;-82
2022/06/26 13:29:31;;;;;;;6.18;2.35;;;;;;;;;;6249265;22;20876;-82
2022/06/26 13:31:58;;;;;;;7.97;2.60;;;;;;;;;;6249259;22;20072;-81
2022/06/26 13:34:26;;;;;;;5.93;2.22;;;;;;;;;;6249339;22;20017;-82
2022/06/26 13:36:53;;;;;;;6.45;2.38;;;;;;;;;;6222166;22;20473;-82
2022/06/26 13:39:20;;;;;;;11.38;2.38;;;;;;;;;;6248757;22;20075;-82
2022/06/26 13:41:47;;;;;;;5.90;2.15;;;;;;;;;;6248357;22;20744;-82
2022/06/26 13:44:20;;;;;;;7.00;2.30;;;;;;;;;;6248973;22;20361;-82
2022/06/26 13:46:47;;;;;;;5.45;1.98;;;;;;;;;;6249195;22;20055;-82
2022/06/26 13:49:17;;;;;;;4.63;2.05;;;;;;;;;;6248872;22;20021;-82
2022/06/26 13:51:44;;;;;;;6.65;1.98;;;;;;;;;;6248771;22;20016;-82
2022/06/26 13:54:12;;;;;;;3.95;1.85;;;;;;;;;;6221762;22;20012;-82
2022/06/26 13:56:39;;;;;;;5.03;2.30;;;;;;;;;;6248944;22;20028;-83
2022/06/26 13:59:06;;;;;;;9.02;1.90;;;;;;;;;;6222409;22;20765;-82
2022/06/26 14:01:38;;;;;;;7.47;1.55;;;;;;;;;;6223010;22;20376;-82
2022/06/26 14:04:08;;;;;;;6.63;1.60;;;;;;;;;;6221895;22;20031;-82
2022/06/26 14:06:37;;;;;;;4.10;1.65;;;;;;;;;;6222194;22;20676;-82
2022/06/26 14:09:05;;;;;;;2.70;1.55;;;;;;;;;;6249011;22;20884;-82
2022/06/26 14:11:34;;;;;;;5.95;2.10;;;;;;;;;;6221252;22;20103;-82
2022/06/26 14:14:02;;;;;;;5.32;1.70;;;;;;;;;;6222179;22;20017;-81
2022/06/26 14:16:32;;;;;;;6.78;2.00;;;;;;;;;;6249392;22;20509;-82
2022/06/26 14:19:00;;;;;;;9.02;2.40;;;;;;;;;;6249018;22;20024;-82
2022/06/26 14:21:29;;;;;;;5.15;2.17;;;;;;;;;;6221936;22;20683;-82
2022/06/26 14:26:47;;;;;;;7.53;2.28;;;;;;;;;;6250577;22;20100;-82
2022/06/26 14:29:14;;;;;;;9.30;2.65;;;;;;;;;;6249453;22;20500;-83
2022/06/26 14:31:42;;;;;;;8.45;2.53;;;;;;;;;;6248132;22;20020;-82
2022/06/26 14:34:32;;;;;;;7.68;2.88;;;;;;;;;;6248681;22;20103;-82
2022/06/26 14:37:01;;;;;;;6.57;2.70;;;;;;;;;;6249005;22;20021;-82
2022/06/26 14:39:28;;;;;;;5.50;2.60;;;;;;;;;;6220815;22;20039;-82
2022/06/26 14:41:56;;;;;;;9.05;3.20;;;;;;;;;;6248842;22;20024;-81
2022/06/26 14:44:24;;;;;;;7.60;2.75;;;;;;;;;;6248920;22;20116;-83
2022/06/26 14:46:51;;;;;;;6.40;2.70;;;;;;;;;;6221897;22;20025;-81
2022/06/26 14:49:19;;;;;;;7.88;2.70;;;;;;;;;;6248993;22;20877;-81
2022/06/26 14:51:49;;;;;;;5.10;2.80;;;;;;;;;;6248555;22;20023;-82
2022/06/26 14:54:18;;;;;;;6.60;2.90;;;;;;;;;;6248086;22;20021;-82
2022/06/26 14:56:45;;;;;;;6.35;2.90;;;;;;;;;;6248210;22;20051;-81
2022/06/26 14:59:12;;;;;;;6.97;2.78;;;;;;;;;;6248812;22;20103;-81
2022/06/26 15:01:39;;;;;;;9.50;2.70;;;;;;;;;;6248666;22;20466;-81